Main page
METAR-TAF:

METAR-TAF

Airports :

Princess Juliana International Airport

Sint Maarten, Netherlands Antilles

latitude: 18-03N, longitude: 063-07W, elevation: 4 m

Current weather observation

The report was made 32 minutes ago, at 22:00 UTC
Wind 11 kt from the East, varying between Northeast and Southeast
Temperature 26°C
Humidity 58%
Pressure 1016 hPa
Visibility 10 km or more
Few clouds at a height of 2000 ft

METAR: TNCM 182200Z 09011KT 050V130 9999 FEW020 26/17 Q1016 NOSIG RMK A3000

Time: 18:32 (22:32 UTC)

Forecast

The report was made 5 hours and 12 minutes ago, at 17:20 UTC
Forecast valid from 18 at 18 UTC to 19 at 18 UTC
Wind 14 kt from the East/Southeast
Visibility: 10 km
Few clouds at a height of 2500 ft
From 18 at 2100 UTC
Wind 8 kt from the East
Visibility: 10 km
Few clouds at a height of 2000 ft
From 19 at 1400 UTC
Wind 14 kt from the East/Southeast
Visibility: 10 km
Few clouds at a height of 2500 ft

TAF: TNCM 181720Z 1818/1918 12014KT P6SM FEW025 FM182100 09008KT P6SM FEW020 FM191400 12014KT P6SM FEW025

Weather observations and forecasts of more than 4000 airports (METAR and TAF reports).

The available stations are represented by yellow and red dots on the map.

Hover mouse over dot to see the name of the station.

Then click to see weather observations and forecasts.

To change the map : click on the green buttons with a black cross to zoom in, on the green button with a dash to zoom out, or on the green arrows for adjacent maps.


METAR-TAF: